createdAt,value
2019-05-22T00:02:25.954Z,98080.09
2019-05-22T00:05:14.059Z,98075.73
2019-05-22T00:07:45.486Z,98075.74
2019-05-22T00:10:18.027Z,98081.41
2019-05-22T00:12:49.438Z,98080.08
2019-05-22T00:15:18.853Z,98079.22
2019-05-22T00:17:49.223Z,98097.48
2019-05-22T00:20:20.423Z,98095.73
2019-05-22T00:22:51.093Z,98097.48
2019-05-22T00:25:21.005Z,98102.72
2019-05-22T00:27:53.287Z,98101.41
2019-05-22T00:30:25.396Z,98099.20
2019-05-22T00:32:54.135Z,98099.65
2019-05-22T00:35:24.593Z,98092.70
2019-05-22T00:37:54.730Z,98090.52
2019-05-22T00:40:25.019Z,98085.75
2019-05-22T00:43:03.247Z,98080.96
2019-05-22T00:45:25.468Z,98083.98
2019-05-22T00:47:54.987Z,98080.54
2019-05-22T00:50:33.964Z,98084.86
2019-05-22T00:53:11.872Z,98088.78
2019-05-22T00:55:48.479Z,98091.38
2019-05-22T00:58:19.850Z,98084.02
2019-05-22T01:00:50.222Z,98089.66
2019-05-22T01:03:22.542Z,98087.03
2019-05-22T01:05:51.346Z,98090.51
2019-05-22T01:08:21.455Z,98088.34
2019-05-22T01:10:54.940Z,98093.58
2019-05-22T01:13:25.628Z,98092.69
2019-05-22T01:15:56.328Z,98099.66
2019-05-22T01:18:27.030Z,98103.12
2019-05-22T01:20:58.925Z,98100.97
2019-05-22T01:23:30.930Z,98102.25
2019-05-22T01:26:01.427Z,98107.91
2019-05-22T01:28:32.214Z,98113.56
2019-05-22T01:31:02.900Z,98119.19
2019-05-22T01:33:33.279Z,98117.88
2019-05-22T01:36:03.558Z,98117.89
2019-05-22T01:38:33.675Z,98116.98
2019-05-22T01:41:18.620Z,98117.84
2019-05-22T01:43:50.398Z,98116.08
2019-05-22T01:46:21.275Z,98125.19
2019-05-22T01:48:54.128Z,98129.10
2019-05-22T01:51:22.828Z,98124.31
2019-05-22T01:53:51.934Z,98120.83
2019-05-22T01:56:21.151Z,98126.40
2019-05-22T01:58:50.642Z,98130.73
2019-05-22T02:01:21.763Z,98125.15
2019-05-22T02:03:52.256Z,98126.03
2019-05-22T02:06:23.460Z,98131.24
2019-05-22T02:08:56.655Z,98127.30
2019-05-22T02:11:27.563Z,98123.39
2019-05-22T02:14:12.575Z,98121.20
2019-05-22T02:16:56.028Z,98119.00
2019-05-22T02:19:16.747Z,98121.05
2019-05-22T02:21:46.152Z,98114.94
2019-05-22T02:24:16.153Z,98122.27
2019-05-22T02:26:46.162Z,98122.76
2019-05-22T02:29:17.131Z,98121.88
2019-05-22T02:31:47.466Z,98134.53
2019-05-22T02:34:17.099Z,98132.35
2019-05-22T02:36:47.279Z,98133.23
2019-05-22T02:39:31.453Z,98133.75
2019-05-22T02:42:04.637Z,98126.77
2019-05-22T02:44:35.425Z,98130.30
2019-05-22T02:47:18.233Z,98131.61
2019-05-22T02:49:38.084Z,98120.30
2019-05-22T02:52:08.355Z,98124.22
2019-05-22T02:54:37.763Z,98118.17
2019-05-22T02:57:09.851Z,98118.17
2019-05-22T02:59:38.746Z,98115.61
2019-05-22T03:02:07.665Z,98110.83
2019-05-22T03:04:58.693Z,98104.31
2019-05-22T03:07:28.705Z,98110.82
2019-05-22T03:09:57.719Z,98107.70
2019-05-22T03:12:28.779Z,98103.84
2019-05-22T03:14:58.628Z,98112.03
2019-05-22T03:17:30.842Z,98106.88
2019-05-22T03:20:03.709Z,98110.81
2019-05-22T03:22:48.176Z,98114.27
2019-05-22T03:25:18.673Z,98109.98
2019-05-22T03:27:52.299Z,98115.70
2019-05-22T03:30:24.723Z,98108.81
2019-05-22T03:32:55.658Z,98113.52
2019-05-22T03:35:26.338Z,98118.97
2019-05-22T03:37:57.111Z,98112.19
2019-05-22T03:40:28.625Z,98119.67
2019-05-22T03:42:58.290Z,98119.18
2019-05-22T03:45:28.407Z,98116.64
2019-05-22T03:47:58.013Z,98107.70
2019-05-22T03:50:28.570Z,98121.42
2019-05-22T03:53:00.145Z,98128.33
2019-05-22T03:55:29.390Z,98132.21
2019-05-22T03:57:58.094Z,98132.01
2019-05-22T04:00:28.198Z,98129.55
2019-05-22T04:02:57.205Z,98125.77
2019-05-22T04:05:28.009Z,98128.95
2019-05-22T04:07:58.959Z,98122.24
2019-05-22T04:10:31.579Z,98123.27
2019-05-22T04:13:00.580Z,98131.82
2019-05-22T04:15:29.872Z,98136.94
2019-05-22T04:18:02.494Z,98138.01
2019-05-22T04:20:31.456Z,98137.33
2019-05-22T04:23:01.483Z,98147.50
2019-05-22T04:25:30.982Z,98149.03
2019-05-22T04:28:00.602Z,98143.88
2019-05-22T04:30:29.417Z,98147.06
2019-05-22T04:32:58.675Z,98152.53
2019-05-22T04:35:29.194Z,98172.68
2019-05-22T04:37:59.111Z,98167.35
2019-05-22T04:40:39.472Z,98171.95
2019-05-22T04:43:08.774Z,98172.55
2019-05-22T04:45:38.081Z,98157.73
2019-05-22T04:48:06.793Z,98162.70
2019-05-22T04:50:37.169Z,98164.73
2019-05-22T04:53:06.289Z,98162.81
2019-05-22T04:55:34.990Z,98155.48
2019-05-22T04:58:11.413Z,98153.58
2019-05-22T05:00:41.230Z,98155.66
2019-05-22T05:03:12.047Z,98150.94
2019-05-22T05:05:42.372Z,98141.27
2019-05-22T05:08:12.277Z,98141.80
2019-05-22T05:10:42.452Z,98142.89
2019-05-22T05:13:11.224Z,98144.22
2019-05-22T05:15:39.919Z,98136.34
2019-05-22T05:18:08.827Z,98131.22
2019-05-22T05:20:38.232Z,98141.63
2019-05-22T05:23:06.931Z,98143.13
2019-05-22T05:25:36.064Z,98140.02
2019-05-22T05:28:07.432Z,98148.86
2019-05-22T05:30:36.276Z,98147.58
2019-05-22T05:33:05.483Z,98137.92
2019-05-22T05:35:35.986Z,98140.33
2019-05-22T05:38:05.591Z,98151.16
2019-05-22T05:40:38.827Z,98146.48
2019-05-22T05:43:09.972Z,98152.98
2019-05-22T05:45:40.572Z,98151.29
2019-05-22T05:48:11.127Z,98158.47
2019-05-22T05:50:42.920Z,98151.55
2019-05-22T05:53:19.300Z,98159.59
2019-05-22T05:56:10.637Z,98168.02
2019-05-22T05:58:40.039Z,98178.94
2019-05-22T06:01:23.921Z,98167.90
2019-05-22T06:03:53.426Z,98168.83
2019-05-22T06:06:26.044Z,98165.62
2019-05-22T06:08:56.572Z,98170.20
2019-05-22T06:11:40.914Z,98175.12
2019-05-22T06:14:13.202Z,98172.60
2019-05-22T06:16:52.363Z,98173.59
2019-05-22T06:19:24.009Z,98180.94
2019-05-22T06:21:53.506Z,98183.09
2019-05-22T06:24:26.703Z,98174.76
2019-05-22T06:27:02.837Z,98170.08
2019-05-22T06:29:43.435Z,98170.40
2019-05-22T06:32:38.603Z,98174.42
2019-05-22T06:35:09.914Z,98161.59
2019-05-22T06:38:01.529Z,98158.72
2019-05-22T06:40:30.735Z,98161.38
2019-05-22T06:43:25.100Z,98163.64
2019-05-22T06:45:55.301Z,98163.38
2019-05-22T06:48:24.113Z,98164.37
2019-05-22T06:50:53.656Z,98159.46
2019-05-22T06:53:22.767Z,98157.42
2019-05-22T06:55:51.470Z,98148.44
2019-05-22T06:58:20.302Z,98155.44
2019-05-22T07:00:49.169Z,98150.92
2019-05-22T07:03:17.908Z,98155.44
2019-05-22T07:05:46.711Z,98155.04
2019-05-22T07:08:16.023Z,98151.95
2019-05-22T07:10:44.867Z,98154.11
2019-05-22T07:13:14.377Z,98147.42
2019-05-22T07:15:44.320Z,98146.18
2019-05-22T07:18:15.399Z,98140.67
2019-05-22T07:20:47.478Z,98142.42
2019-05-22T07:23:19.145Z,98146.08
2019-05-22T07:25:49.392Z,98146.02
2019-05-22T07:28:20.113Z,98147.44
2019-05-22T07:30:50.790Z,98143.44
2019-05-22T07:33:21.097Z,98142.63
2019-05-22T07:36:08.468Z,98136.30
2019-05-22T07:38:22.445Z,98128.92
2019-05-22T07:40:53.030Z,98145.64
2019-05-22T07:43:22.566Z,98134.08
2019-05-22T07:45:51.798Z,98126.37
2019-05-22T07:48:21.783Z,98122.27
2019-05-22T07:50:52.159Z,98112.09
2019-05-22T07:53:22.768Z,98117.27
2019-05-22T07:55:53.899Z,98111.98
2019-05-22T07:58:24.791Z,98109.57
2019-05-22T08:00:55.876Z,98109.19
2019-05-22T08:03:25.317Z,98101.83
2019-05-22T08:05:56.521Z,98095.77
2019-05-22T08:08:25.934Z,98098.95
2019-05-22T08:10:56.847Z,98105.30
2019-05-22T08:13:26.757Z,98097.38
2019-05-22T08:15:55.890Z,98087.43
2019-05-22T08:18:26.284Z,98094.96
2019-05-22T08:20:55.990Z,98095.11
2019-05-22T08:23:26.909Z,98095.89
2019-05-22T08:25:58.462Z,98099.36
2019-05-22T08:28:28.992Z,98088.41
2019-05-22T08:30:57.705Z,98085.99
2019-05-22T08:33:26.503Z,98080.19
2019-05-22T08:35:56.147Z,98076.77
2019-05-22T08:38:31.092Z,98073.26
2019-05-22T08:41:01.741Z,98064.83
2019-05-22T08:43:32.138Z,98063.62
2019-05-22T08:46:01.369Z,98065.23
2019-05-22T08:48:31.700Z,98061.53
2019-05-22T08:51:01.804Z,98054.78
2019-05-22T08:53:46.184Z,98065.28
2019-05-22T08:56:01.475Z,98063.83
2019-05-22T08:58:32.057Z,98048.63
2019-05-22T09:01:01.465Z,98060.72
2019-05-22T09:03:30.637Z,98064.52
2019-05-22T09:05:59.390Z,98067.77
2019-05-22T09:08:28.189Z,98060.66
2019-05-22T09:10:56.903Z,98075.69
2019-05-22T09:13:25.859Z,98082.75
2019-05-22T09:15:54.952Z,98077.77
2019-05-22T09:18:24.555Z,98076.95
2019-05-22T09:20:53.655Z,98082.77
2019-05-22T09:23:22.523Z,98080.26
2019-05-22T09:25:51.313Z,98071.21
2019-05-22T09:28:20.519Z,98068.39
2019-05-22T09:30:49.230Z,98054.78
2019-05-22T09:33:19.537Z,98055.06
2019-05-22T09:35:49.385Z,98053.91
2019-05-22T09:38:18.591Z,98056.55
2019-05-22T09:40:48.565Z,98055.42
2019-05-22T09:43:17.384Z,98055.98
2019-05-22T09:45:46.084Z,98051.72
2019-05-22T09:48:15.944Z,98056.25
2019-05-22T09:50:44.813Z,98062.87
2019-05-22T09:53:13.545Z,98057.80
2019-05-22T09:55:46.918Z,98052.79
2019-05-22T09:58:13.387Z,98049.69
2019-05-22T10:00:42.244Z,98044.01
2019-05-22T10:03:11.366Z,98043.52
2019-05-22T10:05:40.212Z,98043.28
2019-05-22T10:08:09.316Z,98034.56
2019-05-22T10:10:38.933Z,98032.86
2019-05-22T10:13:07.636Z,98029.89
2019-05-22T10:15:36.579Z,98029.50
2019-05-22T10:18:05.587Z,98030.06
2019-05-22T10:20:34.696Z,98021.45
2019-05-22T10:23:14.669Z,98014.26
2019-05-22T10:25:35.431Z,98011.69
2019-05-22T10:28:07.065Z,98010.16
2019-05-22T10:30:36.029Z,98001.93
2019-05-22T10:33:05.755Z,98007.77
2019-05-22T10:35:34.731Z,98007.71
2019-05-22T10:38:03.597Z,98002.26
2019-05-22T10:40:32.994Z,97997.86
2019-05-22T10:43:02.414Z,97997.86
2019-05-22T10:45:31.123Z,97982.47
2019-05-22T10:47:59.877Z,97995.39
2019-05-22T10:50:28.577Z,97999.34
2019-05-22T10:52:57.503Z,97999.34
2019-05-22T10:55:27.198Z,98002.48
2019-05-22T10:57:55.983Z,97999.52
2019-05-22T11:00:26.048Z,97997.42
2019-05-22T11:02:55.063Z,97992.44
2019-05-22T11:05:23.783Z,97994.92
2019-05-22T11:07:52.522Z,97991.88
2019-05-22T11:10:24.838Z,97996.21
2019-05-22T11:12:53.953Z,97996.59
2019-05-22T11:15:23.765Z,97991.83
2019-05-22T11:17:53.669Z,97988.11
2019-05-22T11:20:23.714Z,97986.95
2019-05-22T11:22:53.319Z,97986.95
2019-05-22T11:25:22.844Z,97910.99
2019-05-22T11:27:53.739Z,97965.28
2019-05-22T11:30:23.464Z,97975.84
2019-05-22T11:32:52.457Z,97979.16
2019-05-22T11:35:21.873Z,97980.47
2019-05-22T11:37:50.600Z,97985.36
2019-05-22T11:40:21.424Z,97984.03
2019-05-22T11:42:53.019Z,97982.13
2019-05-22T11:45:22.402Z,97979.25
2019-05-22T11:47:51.614Z,97985.02
2019-05-22T11:50:21.298Z,97977.02
2019-05-22T11:52:50.173Z,97968.77
2019-05-22T11:55:19.300Z,97974.83
2019-05-22T11:57:47.985Z,97967.50
2019-05-22T12:00:21.268Z,97965.48
2019-05-22T12:02:51.857Z,97974.06
2019-05-22T12:05:22.091Z,97979.55
2019-05-22T12:07:51.497Z,97978.78
2019-05-22T12:10:21.219Z,97977.44
2019-05-22T12:12:51.545Z,97973.41
2019-05-22T12:15:24.145Z,97974.13
2019-05-22T12:17:55.092Z,97981.00
2019-05-22T12:20:25.208Z,97982.50
2019-05-22T12:22:53.892Z,97975.23
2019-05-22T12:25:22.954Z,97958.03
2019-05-22T12:27:52.157Z,97960.58
2019-05-22T12:30:22.856Z,97961.13
2019-05-22T12:32:52.650Z,97958.06
2019-05-22T12:35:22.307Z,97951.31
2019-05-22T12:37:51.061Z,97946.62
2019-05-22T12:40:21.174Z,97937.54
2019-05-22T12:42:51.616Z,97936.16
2019-05-22T12:45:28.982Z,97926.55
2019-05-22T12:47:58.598Z,97933.97
2019-05-22T12:50:29.926Z,97931.41
2019-05-22T12:53:01.250Z,97926.66
2019-05-22T12:55:30.759Z,97919.87
2019-05-22T12:58:00.816Z,97922.75
2019-05-22T13:00:31.522Z,97923.58
2019-05-22T13:03:02.200Z,97923.08
2019-05-22T13:05:31.410Z,97916.03
2019-05-22T13:08:00.122Z,97917.66
2019-05-22T13:10:29.402Z,97918.40
2019-05-22T13:12:58.604Z,97918.40
2019-05-22T13:15:27.509Z,97929.00
2019-05-22T13:17:58.341Z,97929.00
2019-05-22T13:20:42.526Z,97926.19
2019-05-22T13:23:07.384Z,97926.19
2019-05-22T13:25:39.994Z,97934.62
2019-05-22T13:28:11.736Z,97924.60
2019-05-22T13:30:43.408Z,97934.23
2019-05-22T13:33:15.268Z,97926.59
2019-05-22T13:35:45.382Z,97917.47
2019-05-22T13:38:14.427Z,97909.28
2019-05-22T13:40:44.634Z,97902.17
2019-05-22T13:43:13.438Z,97913.02
2019-05-22T13:45:42.946Z,97911.44
2019-05-22T13:48:13.089Z,97908.20
2019-05-22T13:50:41.793Z,97907.28
2019-05-22T13:53:12.704Z,97898.59
2019-05-22T13:55:41.518Z,97900.55
2019-05-22T13:58:12.020Z,97901.89
2019-05-22T14:00:41.867Z,97895.67
2019-05-22T14:03:11.268Z,97900.46
2019-05-22T14:05:42.143Z,97903.25
2019-05-22T14:08:12.489Z,97901.81
2019-05-22T14:10:41.392Z,97905.39
2019-05-22T14:13:10.418Z,97907.11
2019-05-22T14:15:52.012Z,97905.64
2019-05-22T14:18:09.656Z,97903.20
2019-05-22T14:20:38.846Z,97901.75
2019-05-22T14:23:07.674Z,97907.50
2019-05-22T14:25:36.991Z,97904.50
2019-05-22T14:28:07.835Z,97902.87
2019-05-22T14:30:36.532Z,97901.45
2019-05-22T14:33:06.035Z,97903.55
2019-05-22T14:35:47.763Z,97902.20
2019-05-22T14:38:07.765Z,97888.95
2019-05-22T14:40:37.726Z,97875.84
2019-05-22T14:43:06.422Z,97879.58
2019-05-22T14:45:35.826Z,97880.01
2019-05-22T14:48:04.883Z,97875.42
2019-05-22T14:50:33.784Z,97873.69
2019-05-22T14:53:03.094Z,97870.14
2019-05-22T14:55:33.877Z,97863.83
2019-05-22T14:58:05.211Z,97859.39
2019-05-22T15:00:36.312Z,97853.94
2019-05-22T15:03:05.920Z,97850.53
2019-05-22T15:05:34.922Z,97855.27
2019-05-22T15:08:05.028Z,97846.42
2019-05-22T15:10:34.527Z,97848.42
2019-05-22T15:13:03.572Z,97838.68
2019-05-22T15:15:32.581Z,97836.20
2019-05-22T15:18:01.301Z,97841.48
2019-05-22T15:20:34.415Z,97833.26
2019-05-22T15:23:03.324Z,97833.59
2019-05-22T15:25:32.569Z,97830.73
2019-05-22T15:28:02.075Z,97837.32
2019-05-22T15:30:31.179Z,97834.52
2019-05-22T15:32:59.942Z,97831.31
2019-05-22T15:35:28.755Z,97826.41
2019-05-22T15:37:58.363Z,97826.41
2019-05-22T15:40:30.087Z,97833.88
2019-05-22T15:42:58.731Z,97830.89
2019-05-22T15:45:29.812Z,97830.89
2019-05-22T15:48:05.231Z,97833.50
2019-05-22T15:50:35.232Z,97825.82
2019-05-22T15:53:11.146Z,97819.22
2019-05-22T15:55:41.372Z,97824.05
2019-05-22T15:58:12.087Z,97823.30
2019-05-22T16:00:41.075Z,97819.59
2019-05-22T16:03:18.632Z,97817.70
2019-05-22T16:05:48.222Z,97824.61
2019-05-22T16:08:18.430Z,97822.44
2019-05-22T16:10:48.969Z,97818.56
2019-05-22T16:13:21.545Z,97815.50
2019-05-22T16:15:53.762Z,97809.91
2019-05-22T16:18:25.539Z,97815.99
2019-05-22T16:20:54.946Z,97807.95
2019-05-22T16:23:25.350Z,97811.61
2019-05-22T16:25:54.666Z,97807.25
2019-05-22T16:28:24.076Z,97800.66
2019-05-22T16:30:55.130Z,97801.01
2019-05-22T16:33:25.489Z,97802.48
2019-05-22T16:35:54.689Z,97799.11
2019-05-22T16:38:25.598Z,97797.31
2019-05-22T16:40:54.571Z,97786.05
2019-05-22T16:43:23.571Z,97781.94
2019-05-22T16:45:53.697Z,97791.14
2019-05-22T16:48:29.046Z,97793.25
2019-05-22T16:50:53.700Z,97788.98
2019-05-22T16:53:24.965Z,97791.11
2019-05-22T16:55:54.368Z,97787.42
2019-05-22T16:58:23.873Z,97783.19
2019-05-22T17:00:56.677Z,97792.77
2019-05-22T17:03:27.049Z,97791.41
2019-05-22T17:05:56.647Z,97799.66
2019-05-22T17:08:27.654Z,97796.80
2019-05-22T17:10:58.623Z,97796.02
2019-05-22T17:13:30.398Z,97795.97
2019-05-22T17:16:00.895Z,97794.20
2019-05-22T17:18:46.020Z,97789.32
2019-05-22T17:21:05.373Z,97790.30
2019-05-22T17:23:34.385Z,97794.62
2019-05-22T17:26:04.698Z,97789.27
2019-05-22T17:28:34.442Z,97791.11
2019-05-22T17:31:04.279Z,97790.86
2019-05-22T17:33:33.984Z,97785.77
2019-05-22T17:36:05.716Z,97783.81
2019-05-22T17:38:36.171Z,97784.39
2019-05-22T17:41:05.884Z,97786.72
2019-05-22T17:43:35.207Z,97790.55
2019-05-22T17:46:05.544Z,97792.00
2019-05-22T17:48:34.761Z,97794.38
2019-05-22T17:51:03.917Z,97794.52
2019-05-22T17:53:32.642Z,97792.91
2019-05-22T17:56:01.611Z,97790.41
2019-05-22T17:58:30.692Z,97796.42
2019-05-22T18:01:00.527Z,97794.52
2019-05-22T18:03:29.436Z,97787.44
2019-05-22T18:05:59.024Z,97792.91
2019-05-22T18:08:29.186Z,97786.64
2019-05-22T18:11:00.371Z,97780.52
2019-05-22T18:13:31.108Z,97787.33
2019-05-22T18:16:04.199Z,97790.95
2019-05-22T18:18:30.645Z,97787.30
2019-05-22T18:20:59.771Z,97786.50
2019-05-22T18:23:28.551Z,97785.43
2019-05-22T18:25:57.251Z,97787.75
2019-05-22T18:28:25.990Z,97790.81
2019-05-22T18:30:55.412Z,97791.45
2019-05-22T18:33:24.225Z,97798.64
2019-05-22T18:35:52.940Z,97795.83
2019-05-22T18:38:21.651Z,97799.68
2019-05-22T18:40:51.566Z,97794.39
2019-05-22T18:43:23.039Z,97799.95
2019-05-22T18:45:51.651Z,97803.83
2019-05-22T18:48:20.474Z,97805.72
2019-05-22T18:50:49.360Z,97812.21
2019-05-22T18:53:18.366Z,97812.15
2019-05-22T18:55:47.084Z,97808.94
2019-05-22T18:58:15.917Z,97814.61
2019-05-22T19:00:44.918Z,97812.60
2019-05-22T19:03:14.375Z,97824.25
2019-05-22T19:05:43.775Z,97816.80
2019-05-22T19:08:12.588Z,97819.59
2019-05-22T19:10:41.394Z,97823.29
2019-05-22T19:13:14.371Z,97835.77
2019-05-22T19:15:41.438Z,97848.73
2019-05-22T19:18:10.307Z,97843.99
2019-05-22T19:20:39.003Z,97847.61
2019-05-22T19:23:07.804Z,97851.66
2019-05-22T19:25:36.545Z,97850.40
2019-05-22T19:28:05.365Z,97855.31
2019-05-22T19:30:34.292Z,97853.86
2019-05-22T19:33:02.991Z,97845.81
2019-05-22T19:35:31.701Z,97850.59
2019-05-22T19:38:01.184Z,97846.94
2019-05-22T19:40:29.989Z,97851.78
2019-05-22T19:42:58.814Z,97854.42
2019-05-22T19:45:30.844Z,97853.66
2019-05-22T19:47:58.939Z,97859.89
2019-05-22T19:50:29.190Z,97860.65
2019-05-22T19:53:15.703Z,97867.81
2019-05-22T19:55:30.127Z,97875.47
2019-05-22T19:57:58.878Z,97874.77
2019-05-22T20:00:27.982Z,97899.22
2019-05-22T20:02:56.680Z,97907.08
2019-05-22T20:05:25.637Z,97912.27
2019-05-22T20:07:54.941Z,97924.88
2019-05-22T20:10:25.453Z,97932.41
2019-05-22T20:12:55.367Z,97935.04
2019-05-22T20:15:24.967Z,97941.89
2019-05-22T20:17:54.312Z,97950.56
2019-05-22T20:20:24.511Z,97937.13
2019-05-22T20:22:53.324Z,97961.17
2019-05-22T20:25:23.159Z,97965.61
2019-05-22T20:27:52.061Z,97974.39
2019-05-22T20:30:22.910Z,97975.75
2019-05-22T20:32:51.621Z,97966.09
2019-05-22T20:35:20.434Z,97970.53
2019-05-22T20:37:49.495Z,97977.64
2019-05-22T20:40:20.361Z,97975.80
2019-05-22T20:42:49.595Z,97970.19
2019-05-22T20:45:21.389Z,97974.44
2019-05-22T20:47:54.567Z,97972.28
2019-05-22T20:50:25.300Z,97972.30
2019-05-22T20:52:55.219Z,97983.30
2019-05-22T20:55:24.642Z,97978.36
2019-05-22T20:57:53.352Z,97973.79
2019-05-22T21:00:23.393Z,97976.09
2019-05-22T21:02:54.982Z,97976.17
2019-05-22T21:05:24.220Z,97972.38
2019-05-22T21:07:55.872Z,97979.63
2019-05-22T21:10:26.173Z,97986.16
2019-05-22T21:12:55.798Z,97986.20
2019-05-22T21:15:24.609Z,97984.88
2019-05-22T21:17:54.050Z,98007.23
2019-05-22T21:20:24.320Z,98006.87
2019-05-22T21:22:53.302Z,98010.96
2019-05-22T21:25:23.471Z,98019.62
2019-05-22T21:27:52.277Z,98018.30
2019-05-22T21:30:21.401Z,98021.59
2019-05-22T21:32:50.599Z,98019.03
2019-05-22T21:35:19.898Z,98015.59
2019-05-22T21:37:48.816Z,98023.38
2019-05-22T21:40:21.461Z,98018.59
2019-05-22T21:42:51.418Z,98017.53
2019-05-22T21:45:20.718Z,98018.84
2019-05-22T21:47:50.509Z,98018.92
2019-05-22T21:50:20.825Z,98015.95
2019-05-22T21:52:49.541Z,98018.48
2019-05-22T21:55:20.961Z,98022.30
2019-05-22T21:57:49.767Z,98020.00
2019-05-22T22:00:40.905Z,98012.94
2019-05-22T22:03:12.837Z,98019.27
2019-05-22T22:05:42.340Z,98016.97
2019-05-22T22:08:11.657Z,98015.35
2019-05-22T22:10:40.607Z,98020.14
2019-05-22T22:13:10.630Z,98016.42
2019-05-22T22:15:44.009Z,98018.08
2019-05-22T22:18:13.207Z,98015.83
2019-05-22T22:20:42.888Z,98015.45
2019-05-22T22:23:14.814Z,98017.54
2019-05-22T22:25:44.172Z,98009.05
2019-05-22T22:28:15.673Z,98006.41
2019-05-22T22:30:55.740Z,98003.28
2019-05-22T22:33:28.924Z,98000.25
2019-05-22T22:35:57.728Z,98004.66
2019-05-22T22:38:28.182Z,98010.23
2019-05-22T22:40:57.486Z,98008.91
2019-05-22T22:43:32.659Z,98006.51
2019-05-22T22:46:05.440Z,98008.26
2019-05-22T22:48:37.562Z,98005.32
2019-05-22T22:51:09.703Z,98010.08
2019-05-22T22:53:39.008Z,98002.19
2019-05-22T22:56:09.847Z,97999.75
2019-05-22T22:58:39.154Z,98003.41
2019-05-22T23:01:10.770Z,97996.25
2019-05-22T23:03:40.179Z,97992.22
2019-05-22T23:06:12.230Z,97992.09
2019-05-22T23:08:41.693Z,97984.59
2019-05-22T23:11:11.176Z,97985.56
2019-05-22T23:13:41.183Z,97986.47
2019-05-22T23:16:11.989Z,97990.88
2019-05-22T23:18:44.595Z,97989.97
2019-05-22T23:21:13.647Z,97983.84
2019-05-22T23:23:41.271Z,97989.94
2019-05-22T23:26:11.573Z,97983.56
2019-05-22T23:28:42.211Z,97992.44
2019-05-22T23:31:12.005Z,97988.73
2019-05-22T23:33:41.148Z,97990.86
2019-05-22T23:36:12.197Z,97986.63
2019-05-22T23:38:41.739Z,97989.36
2019-05-22T23:41:11.998Z,97995.13
2019-05-22T23:43:42.443Z,97994.77
2019-05-22T23:46:13.416Z,97987.44
2019-05-22T23:48:43.924Z,97987.10
2019-05-22T23:51:12.911Z,97981.98
2019-05-22T23:53:42.825Z,97982.06
2019-05-22T23:56:11.828Z,97980.39
2019-05-22T23:58:52.248Z,97977.89
